Time;durP1;ratioP1;P1;durP2;ratioP2;P2;SDS_P1;SDS_P2;PMS_P1;PMS_P2;Temp;Humidity;BMP_temperature;BMP_pressure;BME280_temperature;BME280_humidity;BME280_pressure;Samples;Min_cycle;Max_cycle;Signal;HPM_P1;HPM_P2
2023/06/08 00:02:02;;;;;;;8.25;3.75;;;;;;;20.77;50.68;100578.25;1765611;81;21857;-81
2023/06/08 00:05:08;;;;;;;8.50;2.95;;;;;;;20.88;50.68;100577.42;1766982;81;21311;-82
2023/06/08 00:08:14;;;;;;;9.23;2.75;;;;;;;20.94;49.01;100576.50;1767003;81;21329;-79
2023/06/08 00:11:20;;;;;;;6.72;3.12;;;;;;;20.96;48.56;100574.86;1792608;80;21305;-80
2023/06/08 00:14:26;;;;;;;6.83;3.10;;;;;;;20.84;48.21;100577.59;1793808;80;22016;-80
2023/06/08 00:17:32;;;;;;;11.00;3.40;;;;;;;20.96;48.54;100577.09;1793863;78;21351;-80
2023/06/08 00:20:39;;;;;;;11.78;3.62;;;;;;;20.83;49.05;100574.52;1792677;80;21343;-80
2023/06/08 00:23:38;;;;;;;11.40;3.58;;;;;;;20.72;49.34;100569.78;1794210;80;21312;-80
2023/06/08 00:26:46;;;;;;;5.35;3.08;;;;;;;20.76;49.71;100568.23;1794256;80;21331;-80
2023/06/08 00:29:52;;;;;;;7.97;2.85;;;;;;;20.91;49.53;100567.23;1793130;80;21331;-80
2023/06/08 00:32:59;;;;;;;7.70;3.37;;;;;;;20.68;50.05;100559.13;1794061;80;21316;-80
2023/06/08 00:36:05;;;;;;;13.00;3.05;;;;;;;20.91;49.83;100563.06;1794065;80;21304;-80
2023/06/08 00:39:10;;;;;;;12.28;3.52;;;;;;;20.80;49.78;100563.89;1794012;80;21319;-81
2023/06/08 00:42:15;;;;;;;11.68;3.47;;;;;;;20.83;50.00;100564.78;1792843;80;21669;-81
2023/06/08 00:45:20;;;;;;;6.65;3.02;;;;;;;20.98;49.21;100567.95;1793637;80;21339;-80
2023/06/08 00:48:26;;;;;;;9.28;2.83;;;;;;;20.97;48.66;100566.81;1794187;80;21874;-80
2023/06/08 00:51:43;;;;;;;8.73;2.90;;;;;;;20.76;47.88;100569.06;1792615;80;21296;-80
2023/06/08 00:54:50;;;;;;;5.72;2.80;;;;;;;20.60;47.51;100565.01;1793667;80;21850;-81
2023/06/08 00:57:50;;;;;;;8.53;2.90;;;;;;;20.89;46.45;100571.65;1792704;80;21276;-81
2023/06/08 01:00:50;;;;;;;5.80;2.85;;;;;;;20.85;46.18;100566.80;1793333;80;21331;-81
2023/06/08 01:04:05;;;;;;;8.85;3.15;;;;;;;20.81;46.16;100564.19;1794304;80;22658;-81
2023/06/08 01:07:25;;;;;;;6.40;2.77;;;;;;;20.97;45.57;100561.25;1794131;80;21323;-81
2023/06/08 01:10:44;;;;;;;5.72;2.95;;;;;;;20.98;45.51;100560.16;1770159;80;21331;-81
2023/06/08 01:14:43;;;;;;;5.33;2.83;;;;;;;21.13;45.48;100566.13;1768057;80;21311;-81
2023/06/08 01:17:57;;;;;;;5.80;2.67;;;;;;;21.15;45.76;100559.77;1792112;80;21368;-81
2023/06/08 01:21:14;;;;;;;3.05;2.52;;;;;;;21.28;46.06;100562.88;1782283;80;22587;-81
2023/06/08 01:24:24;;;;;;;5.97;2.85;;;;;;;21.18;45.99;100566.27;1783030;80;21949;-82
2023/06/08 01:27:36;;;;;;;4.35;2.55;;;;;;;21.22;46.09;100569.38;1781680;80;21328;-81
2023/06/08 01:30:39;;;;;;;;;;;;;;;21.07;45.82;100561.51;1784325;80;21343;-81
2023/06/08 01:33:45;;;;;;;7.17;2.42;;;;;;;20.98;46.54;100569.89;1783036;80;20702;-81
2023/06/08 01:37:19;;;;;;;5.47;2.80;;;;;;;20.77;47.10;100567.98;1782014;80;21902;-81
2023/06/08 01:40:38;;;;;;;12.30;2.30;;;;;;;20.66;47.45;100564.62;1779453;80;21321;-81
2023/06/08 01:43:45;;;;;;;2.87;2.27;;;;;;;20.73;47.00;100567.30;1783253;80;21288;-80
2023/06/08 01:46:45;;;;;;;3.08;2.37;;;;;;;20.85;46.90;100562.63;1782848;80;21332;-80
2023/06/08 01:49:51;;;;;;;11.75;2.80;;;;;;;20.73;47.22;100562.58;1781465;80;21352;-81
2023/06/08 01:52:58;;;;;;;5.62;2.55;;;;;;;20.66;47.08;100561.31;1781729;80;21316;-81
2023/06/08 01:56:04;;;;;;;6.83;2.58;;;;;;;20.76;46.99;100561.27;1782934;80;21867;-81
2023/06/08 01:59:09;;;;;;;4.65;2.75;;;;;;;20.83;47.39;100557.29;1783071;80;21882;-81
2023/06/08 02:02:15;;;;;;;12.15;3.55;;;;;;;20.80;47.88;100561.95;1782348;80;21339;-81
2023/06/08 02:05:22;;;;;;;5.83;3.42;;;;;;;20.82;48.60;100561.70;1781607;80;21946;-81
2023/06/08 02:08:28;;;;;;;10.43;2.75;;;;;;;20.78;49.30;100559.09;1782902;80;21304;-81
2023/06/08 02:11:34;;;;;;;4.30;2.58;;;;;;;20.65;49.97;100561.01;1782982;80;21336;-81
2023/06/08 02:14:40;;;;;;;4.78;2.72;;;;;;;20.73;49.94;100560.34;1782991;80;21316;-81
2023/06/08 02:17:46;;;;;;;13.05;2.95;;;;;;;20.73;50.03;100563.13;1782815;80;21297;-80
2023/06/08 02:20:53;;;;;;;16.45;3.20;;;;;;;20.62;50.44;100560.08;1781440;80;21332;-80
2023/06/08 02:24:00;;;;;;;10.18;3.00;;;;;;;20.82;50.13;100556.15;1782903;80;21875;-81
2023/06/08 02:27:06;;;;;;;6.97;2.83;;;;;;;20.72;50.35;100558.66;1782322;80;21351;-80
2023/06/08 02:30:12;;;;;;;5.72;3.10;;;;;;;20.64;50.24;100559.29;1783058;80;21296;-80
2023/06/08 02:33:17;;;;;;;10.58;3.62;;;;;;;20.40;50.59;100562.48;1781474;80;21884;-81
2023/06/08 02:36:25;;;;;;;12.53;3.22;;;;;;;20.40;50.92;100563.03;1782987;80;21308;-81
2023/06/08 02:39:31;;;;;;;9.48;3.15;;;;;;;20.73;49.97;100559.80;1783081;80;21300;-80
2023/06/08 02:42:37;;;;;;;6.00;2.98;;;;;;;20.94;49.37;100565.38;1782083;80;21344;-81
2023/06/08 02:45:45;;;;;;;4.97;3.35;;;;;;;20.85;49.45;100566.80;1782977;80;21305;-81
2023/06/08 02:48:51;;;;;;;6.08;3.37;;;;;;;21.01;49.11;100573.59;1783080;80;21855;-80
2023/06/08 02:51:57;;;;;;;6.95;2.83;;;;;;;21.09;49.09;100573.26;1783044;80;21858;-80
2023/06/08 02:55:03;;;;;;;9.45;3.10;;;;;;;21.19;49.04;100567.95;1783059;80;21670;-80
2023/06/08 02:58:09;;;;;;;5.40;2.95;;;;;;;21.22;49.07;100566.60;1782020;80;21352;-81
2023/06/08 03:01:17;;;;;;;6.20;3.02;;;;;;;21.40;48.55;100567.38;1783139;80;21344;-80
2023/06/08 03:04:29;;;;;;;6.15;2.92;;;;;;;21.69;47.98;100568.36;1782890;80;21288;-81
2023/06/08 03:07:36;;;;;;;10.80;3.08;;;;;;;21.91;47.85;100567.71;1783032;80;21289;-82
2023/06/08 03:10:42;;;;;;;6.90;2.67;;;;;;;21.99;48.13;100572.91;1782922;80;21324;-82
2023/06/08 03:13:48;;;;;;;10.75;2.98;;;;;;;22.27;47.83;100568.52;1781525;80;21371;-82
2023/06/08 03:16:53;;;;;;;5.42;2.60;;;;;;;22.41;47.93;100567.13;1783085;80;21299;-82
2023/06/08 03:20:05;;;;;;;7.62;3.95;;;;;;;22.66;47.90;100567.61;1784381;80;21339;-81
2023/06/08 03:23:12;;;;;;;7.80;3.10;;;;;;;22.61;47.78;100573.09;1793529;80;21352;-82
2023/06/08 03:26:11;;;;;;;9.03;4.03;;;;;;;22.44;48.53;100575.84;1766702;80;21862;-82
2023/06/08 03:29:19;;;;;;;7.95;3.62;;;;;;;22.43;48.56;100573.29;1792664;80;21941;-82
2023/06/08 03:32:25;;;;;;;12.73;3.37;;;;;;;22.32;49.20;100572.80;1792574;80;21312;-82
2023/06/08 03:35:32;;;;;;;9.40;3.83;;;;;;;22.38;49.40;100578.21;1792563;80;21332;-82
2023/06/08 03:38:41;;;;;;;11.53;4.35;;;;;;;22.28;49.84;100579.95;1794186;80;21288;-82
2023/06/08 03:41:47;;;;;;;10.80;4.20;;;;;;;22.22;50.53;100579.56;1794167;80;21323;-79
2023/06/08 03:44:55;;;;;;;10.90;4.17;;;;;;;22.38;50.30;100585.73;1766089;81;21328;-82
2023/06/08 03:48:03;;;;;;;9.95;4.42;;;;;;;22.41;50.57;100579.13;1767490;81;21285;-82
2023/06/08 03:51:09;;;;;;;7.03;3.95;;;;;;;22.58;50.12;100580.55;1765953;81;21325;-82
2023/06/08 03:54:15;;;;;;;18.35;4.25;;;;;;;22.63;49.88;100576.50;1766535;81;21305;-82
2023/06/08 03:57:20;;;;;;;7.53;4.30;;;;;;;22.77;49.58;100584.53;1767288;81;21289;-82
2023/06/08 04:00:26;;;;;;;8.25;4.42;;;;;;;22.71;49.78;100580.25;1767418;81;21298;-82
2023/06/08 04:03:34;;;;;;;13.65;4.12;;;;;;;22.79;49.92;100579.56;1765914;81;21919;-82
2023/06/08 04:06:40;;;;;;;8.10;3.85;;;;;;;23.00;49.29;100578.01;1767341;81;21294;-79
2023/06/08 04:09:46;;;;;;;7.45;3.75;;;;;;;23.10;49.15;100580.45;1767519;81;21302;-82
2023/06/08 04:12:51;;;;;;;11.57;4.00;;;;;;;23.32;48.18;100589.45;1767111;80;21330;-82
2023/06/08 04:15:56;;;;;;;10.38;3.50;;;;;;;23.25;48.13;100584.05;1767108;81;22618;-81
2023/06/08 04:19:03;;;;;;;10.58;3.37;;;;;;;23.48;47.84;100583.03;1767145;81;21310;-82
2023/06/08 04:22:09;;;;;;;6.00;3.10;;;;;;;23.49;47.57;100583.88;1763175;79;21353;-82
2023/06/08 04:25:17;;;;;;;7.17;3.52;;;;;;;23.57;46.88;100584.81;1727104;83;21333;-82
2023/06/08 04:28:25;;;;;;;10.98;3.30;;;;;;;23.84;45.76;100587.77;1761954;80;21320;-82
2023/06/08 04:31:32;;;;;;;6.50;2.90;;;;;;;23.98;45.09;100591.33;1816809;79;21884;-80
2023/06/08 04:34:39;;;;;;;9.38;3.30;;;;;;;24.12;44.91;100593.19;1816132;79;21290;-80
2023/06/08 04:37:45;;;;;;;8.25;2.85;;;;;;;24.32;44.05;100593.16;1793438;80;21300;-81
2023/06/08 04:41:01;;;;;;;6.83;2.70;;;;;;;24.49;43.94;100596.77;1816898;79;21287;-81
2023/06/08 04:44:08;;;;;;;8.00;3.17;;;;;;;24.50;44.01;100597.05;1815980;79;21893;-81
2023/06/08 04:47:16;;;;;;;7.87;3.17;;;;;;;24.55;44.23;100600.45;1816874;79;21323;-81
2023/06/08 04:50:22;;;;;;;5.25;2.83;;;;;;;24.90;43.66;100595.27;1787240;79;21319;-81
2023/06/08 04:53:28;;;;;;;7.22;3.95;;;;;;;24.98;42.65;100595.32;1775713;80;21327;-81
2023/06/08 04:56:33;;;;;;;6.70;3.45;;;;;;;25.06;42.33;100599.05;1777303;80;21307;-81
2023/06/08 04:59:40;;;;;;;10.68;3.12;;;;;;;25.20;41.95;100597.53;1811817;79;21898;-81
2023/06/08 05:02:46;;;;;;;9.60;2.55;;;;;;;25.33;41.55;100603.81;1815694;79;21298;-81
2023/06/08 05:05:54;;;;;;;8.13;3.05;;;;;;;25.40;41.07;100601.61;1814084;79;22492;-80
2023/06/08 05:09:01;;;;;;;11.33;2.67;;;;;;;25.70;40.68;100607.46;1815390;79;21334;-80
2023/06/08 05:12:07;;;;;;;10.15;2.70;;;;;;;25.73;40.69;100604.66;1814134;79;21287;-80
2023/06/08 05:15:14;;;;;;;8.43;2.90;;;;;;;25.78;40.09;100608.09;1814312;79;21884;-80
2023/06/08 05:18:20;;;;;;;14.20;2.92;;;;;;;25.71;39.48;100605.50;1815255;79;21299;-80
2023/06/08 05:21:25;;;;;;;6.92;2.70;;;;;;;25.84;38.90;100604.22;1815292;79;21853;-80
2023/06/08 05:24:30;;;;;;;6.17;2.95;;;;;;;25.87;39.72;100601.70;1816181;79;21346;-80
2023/06/08 05:27:37;;;;;;;5.85;3.35;;;;;;;26.16;39.81;100606.37;1816383;79;21291;-80
2023/06/08 05:30:41;;;;;;;6.62;3.02;;;;;;;26.56;39.24;100603.47;1794951;78;21883;-80
2023/06/08 05:33:48;;;;;;;6.67;2.62;;;;;;;26.94;37.58;100608.34;1778198;80;21324;-80
2023/06/08 05:36:54;;;;;;;10.93;3.37;;;;;;;27.12;34.89;100605.59;1796579;78;21293;-80
2023/06/08 05:40:00;;;;;;;6.75;2.70;;;;;;;27.17;33.87;100609.25;1767324;80;21262;-80
2023/06/08 05:42:59;;;;;;;8.45;2.85;;;;;;;27.15;34.60;100611.50;1789314;79;21298;-80
2023/06/08 05:46:06;;;;;;;8.58;3.37;;;;;;;27.11;34.53;100611.78;1750387;80;21935;-81
2023/06/08 05:49:11;;;;;;;9.23;4.10;;;;;;;27.22;34.78;100609.81;1771151;80;21291;-81
2023/06/08 05:52:18;;;;;;;9.23;3.72;;;;;;;27.56;33.34;100615.70;1735035;82;21349;-81
2023/06/08 05:55:23;;;;;;;9.75;4.05;;;;;;;27.69;33.59;100613.73;1766949;80;21290;-81
2023/06/08 05:58:31;;;;;;;8.20;3.22;;;;;;;27.66;34.60;100611.48;1757003;80;21290;-80
2023/06/08 06:01:38;;;;;;;39.67;4.72;;;;;;;27.84;30.76;100606.44;1792748;80;21864;-81
2023/06/08 06:04:48;;;;;;;11.88;3.27;;;;;;;27.94;31.65;100613.43;1790598;80;21290;-82
2023/06/08 06:07:54;;;;;;;5.53;2.85;;;;;;;28.05;30.16;100612.30;1786458;78;22285;-81
2023/06/08 06:11:01;;;;;;;4.42;2.40;;;;;;;28.09;30.37;100610.61;1786922;79;21306;-81
2023/06/08 06:14:07;;;;;;;5.53;2.75;;;;;;;28.11;30.08;100613.95;1785936;80;21282;-82
2023/06/08 06:17:15;;;;;;;5.10;2.30;;;;;;;28.27;29.72;100611.36;1795786;79;21293;-82
2023/06/08 06:20:22;;;;;;;5.90;2.95;;;;;;;28.48;28.69;100605.70;1777036;79;21319;-81
2023/06/08 06:23:29;;;;;;;6.45;2.33;;;;;;;28.61;29.57;100607.89;1819742;78;21350;-81
2023/06/08 06:26:35;;;;;;;9.28;1.92;;;;;;;28.72;28.30;100601.63;1804389;78;21321;-81
2023/06/08 06:29:40;;;;;;;5.83;2.35;;;;;;;28.95;28.50;100602.94;1781465;78;21305;-81
2023/06/08 06:32:46;;;;;;;7.25;2.55;;;;;;;29.29;28.88;100612.81;1786819;78;21307;-81
2023/06/08 06:35:53;;;;;;;8.25;2.72;;;;;;;29.40;28.23;100601.73;1802951;78;21333;-81
2023/06/08 06:38:59;;;;;;;6.87;2.67;;;;;;;29.65;28.61;100597.89;1799391;78;21875;-81
2023/06/08 06:42:06;;;;;;;14.40;3.02;;;;;;;29.96;27.45;100598.97;1816631;77;21341;-80
2023/06/08 06:45:17;;;;;;;5.92;2.58;;;;;;;29.95;27.00;100593.91;1820943;78;21332;-81
2023/06/08 06:48:26;;;;;;;4.12;2.02;;;;;;;30.16;28.02;100593.15;1826768;77;21310;-81
2023/06/08 06:51:27;;;;;;;5.80;2.08;;;;;;;30.25;27.54;100596.98;1819823;77;21279;-81
2023/06/08 06:54:32;;;;;;;3.98;2.27;;;;;;;30.12;26.72;100603.31;1791007;79;21300;-81
2023/06/08 06:57:40;;;;;;;4.33;1.77;;;;;;;30.07;27.24;100596.90;1824440;78;21280;-81
2023/06/08 07:00:45;;;;;;;7.62;2.50;;;;;;;29.98;26.12;100599.53;1805470;77;21311;-81
2023/06/08 07:03:52;;;;;;;3.65;1.85;;;;;;;29.88;27.21;100602.43;1807096;77;21295;-81
2023/06/08 07:06:59;;;;;;;7.00;2.50;;;;;;;29.78;28.12;100594.38;1816896;78;21314;-81
2023/06/08 07:10:07;;;;;;;4.28;2.05;;;;;;;29.79;28.03;100602.27;1827358;78;21281;-81
2023/06/08 07:13:13;;;;;;;7.35;2.33;;;;;;;29.79;26.84;100604.52;1765259;79;21176;-80
2023/06/08 07:16:22;;;;;;;6.42;2.10;;;;;;;29.82;26.67;100599.41;1763473;79;21270;-80
2023/06/08 07:19:28;;;;;;;8.60;2.10;;;;;;;29.76;26.90;100602.28;1793937;78;21316;-81
2023/06/08 07:22:35;;;;;;;5.42;2.20;;;;;;;29.74;27.18;100605.98;1824091;77;21314;-81
2023/06/08 07:25:42;;;;;;;9.63;2.77;;;;;;;29.89;26.75;100609.77;1784617;79;21390;-81
2023/06/08 07:28:53;;;;;;;5.28;2.35;;;;;;;29.93;26.48;100614.52;1775115;78;21327;-81
2023/06/08 07:31:57;;;;;;;7.90;2.40;;;;;;;30.11;26.62;100608.66;1817187;77;21323;-82
2023/06/08 07:35:04;;;;;;;6.28;1.77;;;;;;;30.28;26.21;100611.05;1811473;77;21355;-81
2023/06/08 07:38:11;;;;;;;14.87;2.12;;;;;;;30.14;25.08;100606.70;1808081;77;21272;-81
2023/06/08 07:41:16;;;;;;;10.25;1.72;;;;;;;30.18;25.00;100602.14;1807234;78;21280;-81
2023/06/08 07:44:20;;;;;;;4.00;1.52;;;;;;;30.23;26.09;100606.30;1809904;77;21890;-81
2023/06/08 07:47:26;;;;;;;2.95;1.55;;;;;;;30.36;25.30;100609.55;1820778;77;21960;-80
2023/06/08 07:50:33;;;;;;;9.05;1.95;;;;;;;30.40;24.61;100610.64;1788380;78;21919;-80
2023/06/08 07:53:45;;;;;;;9.10;1.65;;;;;;;30.32;24.29;100609.88;1793265;79;21329;-81
2023/06/08 07:56:50;;;;;;;6.97;2.15;;;;;;;30.28;24.84;100606.23;1810952;78;21304;-81
2023/06/08 07:59:55;;;;;;;9.68;1.85;;;;;;;30.18;24.51;100602.14;1796659;79;21293;-81
2023/06/08 08:03:06;;;;;;;5.08;1.70;;;;;;;29.94;24.55;100598.44;1782708;78;21950;-81
2023/06/08 08:06:12;;;;;;;2.47;1.50;;;;;;;29.93;24.51;100600.42;1817403;78;22319;-81
2023/06/08 08:09:17;;;;;;;10.53;2.20;;;;;;;29.88;24.85;100592.56;1813952;77;21356;-81
2023/06/08 08:12:22;;;;;;;14.63;1.95;;;;;;;29.98;24.89;100592.48;1815922;78;21307;-81
2023/06/08 08:15:27;;;;;;;4.47;2.10;;;;;;;29.94;24.37;100602.09;1824017;77;21333;-81
2023/06/08 08:18:34;;;;;;;4.55;1.95;;;;;;;29.79;24.34;100596.05;1779256;79;21337;-81
2023/06/08 08:21:40;;;;;;;12.03;2.62;;;;;;;29.71;25.25;100596.69;1817536;77;22729;-82
2023/06/08 08:24:46;;;;;;;11.78;2.17;;;;;;;29.76;25.29;100606.50;1795350;80;21318;-82
2023/06/08 08:27:51;;;;;;;7.58;1.90;;;;;;;29.70;24.38;100602.06;1796923;78;21945;-82
2023/06/08 08:30:57;;;;;;;6.00;1.77;;;;;;;29.84;24.93;100599.97;1815340;78;21307;-81
2023/06/08 08:34:04;;;;;;;11.78;2.45;;;;;;;30.02;25.72;100602.86;1785389;79;21314;-82
2023/06/08 08:37:10;;;;;;;5.12;1.98;;;;;;;30.04;23.99;100598.32;1797209;79;22432;-82
2023/06/08 08:40:17;;;;;;;6.30;1.98;;;;;;;29.91;24.55;100601.84;1796220;78;21289;-82
2023/06/08 08:43:28;;;;;;;4.87;2.05;;;;;;;29.72;25.24;100601.19;1794306;78;21344;-81
2023/06/08 08:46:40;;;;;;;4.80;2.10;;;;;;;29.65;25.58;100599.30;1794544;79;21297;-81
2023/06/08 08:49:46;;;;;;;8.08;2.05;;;;;;;29.87;25.82;100595.12;1796597;79;21895;-81
2023/06/08 08:52:56;;;;;;;12.07;2.20;;;;;;;29.85;24.48;100598.82;1795157;79;21332;-80
2023/06/08 08:56:03;;;;;;;8.70;1.90;;;;;;;30.16;24.60;100597.38;1781668;78;21341;-81
2023/06/08 08:59:09;;;;;;;4.37;1.72;;;;;;;30.39;24.32;100584.38;1797863;79;21345;-81
2023/06/08 09:02:14;;;;;;;8.43;2.50;;;;;;;30.48;24.48;100580.31;1799852;78;21289;-80
2023/06/08 09:05:20;;;;;;;3.58;1.70;;;;;;;30.58;24.04;100587.22;1801696;78;21314;-81
2023/06/08 09:08:26;;;;;;;6.10;1.92;;;;;;;30.70;23.94;100581.14;1790408;79;21356;-81
2023/06/08 09:11:34;;;;;;;6.08;2.25;;;;;;;30.55;22.98;100590.67;1800861;78;21348;-81
2023/06/08 09:14:41;;;;;;;4.47;2.02;;;;;;;30.68;23.52;100578.64;1792755;78;21313;-81
2023/06/08 09:17:48;;;;;;;4.35;1.95;;;;;;;30.74;24.04;100584.50;1803367;78;21676;-81
2023/06/08 09:29:19;;;;;;;7.60;1.90;;;;;;;30.57;24.03;100572.84;1698193;82;21221;-81
2023/06/08 09:32:27;;;;;;;4.47;2.12;;;;;;;30.55;25.02;100567.52;1678487;83;21940;-80
2023/06/08 09:35:32;;;;;;;2.65;1.30;;;;;;;30.65;24.59;100563.71;1682249;81;21371;-80
2023/06/08 09:38:39;;;;;;;7.33;2.35;;;;;;;31.10;24.19;100567.02;1751703;79;21267;-81
2023/06/08 09:41:44;;;;;;;5.10;2.10;;;;;;;31.30;23.63;100561.05;1796807;79;21302;-81
2023/06/08 09:44:49;;;;;;;6.15;1.80;;;;;;;31.34;24.05;100553.38;1736060;80;21306;-81
2023/06/08 09:47:54;;;;;;;6.00;1.90;;;;;;;31.48;23.50;100554.25;1721962;83;21303;-81
2023/06/08 09:51:06;;;;;;;5.08;1.92;;;;;;;31.27;23.43;100552.34;1718053;81;21286;-81
2023/06/08 09:54:06;;;;;;;4.05;1.90;;;;;;;31.21;23.25;100550.16;1713171;81;21344;-81
2023/06/08 09:57:02;;;;;;;8.60;2.27;;;;;;;31.33;24.17;100546.86;1724394;80;21346;-81
2023/06/08 09:59:57;;;;;;;5.05;2.12;;;;;;;31.28;23.25;100552.03;1753063;80;21537;-81
2023/06/08 10:03:30;;;;;;;7.08;1.92;;;;;;;31.26;24.03;100548.66;1709839;82;21346;-81
2023/06/08 10:06:37;;;;;;;12.13;2.17;;;;;;;31.37;23.50;100556.98;1739778;81;21833;-80
2023/06/08 10:09:44;;;;;;;7.72;1.80;;;;;;;30.93;23.79;100552.03;1729965;82;21323;-81
2023/06/08 11:01:15;;;;;;;4.25;2.10;;;;;;;31.29;24.24;100506.27;1754175;79;21682;-81
2023/06/08 11:04:23;;;;;;;5.28;2.05;;;;;;;31.31;24.03;100505.37;1752547;80;21308;-81
2023/06/08 11:07:30;;;;;;;4.67;2.20;;;;;;;31.42;23.97;100501.20;1731115;81;21339;-81
2023/06/08 11:10:39;;;;;;;5.45;2.20;;;;;;;31.41;23.56;100505.76;1779521;79;21330;-81
2023/06/08 11:13:45;;;;;;;7.03;1.90;;;;;;;31.39;23.68;100507.49;1772684;79;21182;-80
2023/06/08 11:16:58;;;;;;;9.85;2.52;;;;;;;31.53;23.95;100508.94;1792013;79;21322;-80
2023/06/08 11:20:05;;;;;;;10.45;2.25;;;;;;;31.58;23.05;100496.11;1751727;81;21850;-80
2023/06/08 11:23:14;;;;;;;6.53;2.15;;;;;;;31.65;23.34;100499.35;1732878;82;21927;-81
2023/06/08 11:26:24;;;;;;;9.10;2.05;;;;;;;31.70;23.18;100495.59;1792016;80;21308;-80
2023/06/08 11:29:28;;;;;;;12.00;2.25;;;;;;;31.45;22.85;100493.52;1782146;78;21910;-81
2023/06/08 11:32:35;;;;;;;4.65;1.92;;;;;;;31.55;22.90;100491.91;1755551;80;22497;-81
2023/06/08 11:35:41;;;;;;;4.17;1.90;;;;;;;31.59;22.35;100485.06;1778393;78;21305;-81
2023/06/08 11:38:48;;;;;;;10.03;2.00;;;;;;;31.40;23.52;100492.20;1783272;78;21819;-82
2023/06/08 11:41:54;;;;;;;5.08;1.82;;;;;;;31.43;23.50;100496.38;1794616;78;22353;-80
2023/06/08 11:45:00;;;;;;;5.40;2.20;;;;;;;31.52;23.27;100493.09;1787220;78;21339;-80
2023/06/08 11:48:07;;;;;;;8.40;2.27;;;;;;;31.71;22.53;100485.40;1791491;80;21296;-79
2023/06/08 11:51:13;;;;;;;10.75;2.58;;;;;;;31.72;22.46;100475.76;1773815;80;21337;-80
2023/06/08 11:54:18;;;;;;;7.70;2.02;;;;;;;31.97;22.74;100477.23;1771237;79;21289;-80
2023/06/08 11:57:24;;;;;;;8.00;2.10;;;;;;;32.19;23.25;100472.24;1802978;78;21855;-81
2023/06/08 12:00:36;;;;;;;4.10;2.15;;;;;;;32.39;22.81;100480.04;1769738;78;21315;-81
2023/06/08 12:03:56;;;;;;;5.95;1.98;;;;;;;32.59;22.77;100473.05;1794514;78;21307;-80
2023/06/08 12:07:02;;;;;;;5.90;2.30;;;;;;;32.53;22.66;100473.76;1769259;79;21310;-81
2023/06/08 12:10:07;;;;;;;5.08;2.50;;;;;;;32.28;22.49;100466.09;1762843;79;21306;-81
2023/06/08 12:13:22;;;;;;;7.58;2.15;;;;;;;32.28;21.78;100473.75;1764494;80;21314;-81
2023/06/08 12:16:28;;;;;;;7.83;2.33;;;;;;;32.09;21.88;100465.41;1808629;79;21324;-81
2023/06/08 12:19:36;;;;;;;3.77;2.17;;;;;;;32.13;21.97;100472.66;1785000;80;21323;-81
2023/06/08 12:22:42;;;;;;;8.75;2.22;;;;;;;32.14;21.88;100470.95;1854714;77;21335;-81
2023/06/08 12:25:47;;;;;;;6.72;2.08;;;;;;;32.45;21.31;100466.02;1863601;76;21325;-81
2023/06/08 12:28:54;;;;;;;4.03;2.05;;;;;;;32.65;21.83;100469.77;1832092;76;21861;-81
2023/06/08 12:32:02;;;;;;;7.08;2.65;;;;;;;32.49;21.14;100467.89;1774529;78;21874;-81
2023/06/08 12:35:10;;;;;;;7.70;1.90;;;;;;;32.41;21.30;100467.23;1818531;77;21303;-81
2023/06/08 12:38:17;;;;;;;4.97;1.77;;;;;;;32.13;21.51;100460.76;1826416;78;21642;-81
2023/06/08 12:41:24;;;;;;;5.53;2.20;;;;;;;31.98;22.34;100454.86;1830806;78;21304;-81
2023/06/08 12:44:32;;;;;;;2.85;1.57;;;;;;;32.04;23.01;100455.58;1837681;78;21336;-81
2023/06/08 12:50:41;;;;;;;10.98;2.12;;;;;;;32.19;22.89;100454.43;1837313;78;21308;-81
2023/06/08 12:53:58;;;;;;;7.15;1.90;;;;;;;32.21;22.61;100450.11;1836826;78;22564;-81
2023/06/08 12:57:04;;;;;;;2.80;1.67;;;;;;;32.16;22.66;100443.73;1835974;78;22436;-81
2023/06/08 13:00:12;;;;;;;4.72;2.25;;;;;;;32.23;22.67;100442.71;1838556;78;21297;-81
2023/06/08 13:03:18;;;;;;;5.85;2.05;;;;;;;32.28;22.73;100439.80;1811091;77;21891;-80
2023/06/08 13:06:25;;;;;;;5.45;2.45;;;;;;;32.29;22.66;100434.39;1814965;79;21279;-81
2023/06/08 13:09:30;;;;;;;6.08;2.10;;;;;;;32.22;21.64;100444.70;1810692;79;21292;-81
2023/06/08 13:12:35;;;;;;;5.83;2.12;;;;;;;32.13;21.54;100430.22;1798918;80;21319;-81
2023/06/08 13:18:47;;;;;;;11.55;2.30;;;;;;;31.81;22.82;100439.94;1797038;80;21938;-80
2023/06/08 13:21:53;;;;;;;7.28;1.77;;;;;;;31.80;21.96;100432.58;1796811;80;21304;-80
2023/06/08 13:25:01;;;;;;;7.12;2.12;;;;;;;31.59;21.96;100437.00;1808293;79;21331;-80
2023/06/08 13:28:09;;;;;;;11.00;1.80;;;;;;;31.70;22.05;100430.55;1809938;79;21287;-80
2023/06/08 13:31:15;;;;;;;12.35;2.62;;;;;;;31.84;23.13;100432.83;1809344;79;21327;-80
2023/06/08 13:34:22;;;;;;;11.35;1.87;;;;;;;31.83;23.13;100426.09;1809760;79;21279;-81
2023/06/08 13:37:28;;;;;;;7.33;1.80;;;;;;;31.72;22.59;100422.61;1808426;79;21328;-81
2023/06/08 13:40:34;;;;;;;3.05;1.50;;;;;;;31.59;23.52;100424.28;1809883;79;21291;-81
2023/06/08 13:43:43;;;;;;;6.62;1.60;;;;;;;31.31;23.38;100423.43;1809928;79;21284;-80
2023/06/08 13:46:48;;;;;;;8.58;1.90;;;;;;;31.11;22.98;100412.50;1798672;78;21204;-81
2023/06/08 13:49:54;;;;;;;10.45;2.10;;;;;;;31.11;22.60;100411.92;1798238;80;21324;-80
2023/06/08 13:53:00;;;;;;;10.75;2.35;;;;;;;31.26;23.26;100407.38;1797495;80;21905;-80
2023/06/08 13:56:06;;;;;;;10.72;2.20;;;;;;;31.27;23.23;100408.25;1809778;79;21842;-80
2023/06/08 13:59:09;;;;;;;6.60;1.83;;;;;;;31.38;23.99;100398.98;1799105;80;21861;-80
2023/06/08 14:02:14;;;;;;;7.15;2.47;;;;;;;31.36;24.03;100397.06;1798183;80;21320;-80
2023/06/08 14:05:20;;;;;;;8.58;1.95;;;;;;;31.45;24.01;100390.94;1799212;78;21858;-80
2023/06/08 14:08:25;;;;;;;11.50;2.40;;;;;;;31.43;23.49;100386.16;1809590;79;21292;-80
2023/06/08 14:11:29;;;;;;;5.58;2.33;;;;;;;31.48;23.89;100391.16;1809716;79;21885;-80
2023/06/08 14:14:36;;;;;;;6.40;1.92;;;;;;;31.64;25.51;100393.08;1809819;79;21842;-80
2023/06/08 14:17:42;;;;;;;6.72;2.00;;;;;;;31.65;25.43;100383.44;1809198;79;22606;-80
2023/06/08 14:20:48;;;;;;;10.25;2.58;;;;;;;31.65;25.43;100383.44;1808367;79;21307;-80
2023/06/08 14:23:54;;;;;;;8.33;2.22;;;;;;;31.49;25.58;100385.77;1809871;79;21306;-80
2023/06/08 14:26:59;;;;;;;4.65;1.92;;;;;;;31.51;25.36;100375.55;1798967;79;21293;-80
2023/06/08 14:30:07;;;;;;;6.67;2.27;;;;;;;31.30;25.58;100374.56;1809820;79;21330;-80
2023/06/08 14:33:12;;;;;;;5.95;2.00;;;;;;;31.32;26.30;100368.58;1808827;79;21318;-80
2023/06/08 14:36:18;;;;;;;10.78;1.90;;;;;;;31.17;26.57;100360.39;1809847;79;21307;-80
2023/06/08 14:39:24;;;;;;;7.10;2.50;;;;;;;30.73;26.07;100359.80;1809804;79;21849;-79
2023/06/08 14:42:31;;;;;;;8.93;2.10;;;;;;;30.66;26.47;100366.37;1809495;79;21291;-80
2023/06/08 14:45:37;;;;;;;12.98;2.20;;;;;;;30.55;26.96;100357.83;1809670;79;21288;-80
2023/06/08 14:48:43;;;;;;;11.20;2.27;;;;;;;30.67;27.16;100352.52;1808965;79;21874;-80
2023/06/08 14:51:42;;;;;;;6.50;2.52;;;;;;;30.42;27.46;100360.02;1810028;79;21283;-79
2023/06/08 14:54:34;;;;;;;4.40;2.20;;;;;;;30.56;26.79;100356.67;1809741;79;21284;-80
2023/06/08 14:57:41;;;;;;;8.45;2.42;;;;;;;30.53;27.05;100351.06;1809938;79;21287;-80
2023/06/08 15:00:47;;;;;;;5.62;2.50;;;;;;;30.38;26.93;100347.67;1809843;79;21861;-80
2023/06/08 15:03:52;;;;;;;5.25;2.20;;;;;;;30.29;26.95;100341.31;1808637;79;21350;-80
2023/06/08 15:07:00;;;;;;;5.70;2.33;;;;;;;30.25;26.62;100338.86;1810229;78;21185;-80
2023/06/08 15:10:06;;;;;;;9.18;2.50;;;;;;;30.16;26.86;100331.38;1769111;81;21922;-80
2023/06/08 15:12:59;;;;;;;7.42;2.60;;;;;;;30.34;27.66;100331.92;1807573;79;21367;-82
2023/06/08 15:16:04;;;;;;;;;;;;;;;30.38;26.72;100331.58;1812651;79;21288;-82
2023/06/08 15:19:09;;;;;;;7.10;2.60;;;;;;;30.32;27.82;100323.52;1809173;79;20266;-79
2023/06/08 15:22:14;;;;;;;12.00;2.83;;;;;;;30.22;27.31;100326.77;1790073;80;21902;-79
2023/06/08 15:25:20;;;;;;;10.15;2.40;;;;;;;30.13;27.10;100329.16;1798861;80;21284;-80
2023/06/08 15:28:27;;;;;;;9.53;3.30;;;;;;;30.05;27.00;100325.86;1809806;79;21858;-79
2023/06/08 15:31:32;;;;;;;7.83;2.50;;;;;;;30.04;27.43;100324.77;1809939;79;21287;-80